sensor_id;sensor_type;location;lat;lon;timestamp;P1;durP1;ratioP1;P2;durP2;ratioP2
28629;SDS011;15817;42.130;24.762;2023-05-14T00:01:57;2.42;;;2.00;;
28629;SDS011;15817;42.130;24.762;2023-05-14T00:04:23;3.10;;;2.00;;
28629;SDS011;15817;42.130;24.762;2023-05-14T00:06:49;4.53;;;2.03;;
28629;SDS011;15817;42.130;24.762;2023-05-14T00:09:15;2.40;;;1.92;;
28629;SDS011;15817;42.130;24.762;2023-05-14T00:11:41;4.88;;;1.80;;
28629;SDS011;15817;42.130;24.762;2023-05-14T00:14:07;8.35;;;2.13;;
28629;SDS011;15817;42.130;24.762;2023-05-14T00:16:32;7.75;;;2.30;;
28629;SDS011;15817;42.130;24.762;2023-05-14T00:18:58;5.50;;;2.30;;
28629;SDS011;15817;42.130;24.762;2023-05-14T00:21:26;2.42;;;1.95;;
28629;SDS011;15817;42.130;24.762;2023-05-14T00:23:52;3.40;;;2.50;;
28629;SDS011;15817;42.130;24.762;2023-05-14T00:26:18;3.28;;;2.33;;
28629;SDS011;15817;42.130;24.762;2023-05-14T00:28:45;6.55;;;2.30;;
28629;SDS011;15817;42.130;24.762;2023-05-14T00:31:12;3.90;;;2.05;;
28629;SDS011;15817;42.130;24.762;2023-05-14T00:33:38;2.65;;;1.90;;
28629;SDS011;15817;42.130;24.762;2023-05-14T00:36:04;2.20;;;2.00;;
28629;SDS011;15817;42.130;24.762;2023-05-14T00:38:30;4.88;;;2.03;;
28629;SDS011;15817;42.130;24.762;2023-05-14T00:40:56;3.42;;;2.10;;
28629;SDS011;15817;42.130;24.762;2023-05-14T00:43:24;3.05;;;1.63;;
28629;SDS011;15817;42.130;24.762;2023-05-14T00:45:53;3.60;;;2.00;;
28629;SDS011;15817;42.130;24.762;2023-05-14T00:48:20;5.05;;;2.13;;
28629;SDS011;15817;42.130;24.762;2023-05-14T00:50:47;3.95;;;2.00;;
28629;SDS011;15817;42.130;24.762;2023-05-14T00:53:14;4.30;;;2.55;;
28629;SDS011;15817;42.130;24.762;2023-05-14T00:55:41;4.38;;;2.00;;
28629;SDS011;15817;42.130;24.762;2023-05-14T00:58:11;6.00;;;2.08;;
28629;SDS011;15817;42.130;24.762;2023-05-14T01:00:38;6.75;;;2.00;;
28629;SDS011;15817;42.130;24.762;2023-05-14T01:03:05;4.57;;;2.30;;
28629;SDS011;15817;42.130;24.762;2023-05-14T01:11:42;4.13;;;2.25;;
28629;SDS011;15817;42.130;24.762;2023-05-14T01:17:10;3.33;;;2.13;;
28629;SDS011;15817;42.130;24.762;2023-05-14T01:19:55;6.70;;;2.10;;
28629;SDS011;15817;42.130;24.762;2023-05-14T01:22:22;3.90;;;2.25;;
28629;SDS011;15817;42.130;24.762;2023-05-14T01:24:48;4.93;;;2.40;;
28629;SDS011;15817;42.130;24.762;2023-05-14T01:27:21;4.03;;;2.50;;
28629;SDS011;15817;42.130;24.762;2023-05-14T01:32:49;4.05;;;2.60;;
28629;SDS011;15817;42.130;24.762;2023-05-14T01:35:18;4.53;;;2.55;;
28629;SDS011;15817;42.130;24.762;2023-05-14T01:37:46;3.88;;;2.58;;
28629;SDS011;15817;42.130;24.762;2023-05-14T01:40:14;9.63;;;2.60;;
28629;SDS011;15817;42.130;24.762;2023-05-14T01:42:40;5.20;;;2.25;;
28629;SDS011;15817;42.130;24.762;2023-05-14T01:45:07;7.45;;;2.70;;
28629;SDS011;15817;42.130;24.762;2023-05-14T01:47:33;10.20;;;3.17;;
28629;SDS011;15817;42.130;24.762;2023-05-14T01:49:59;5.47;;;3.28;;
28629;SDS011;15817;42.130;24.762;2023-05-14T01:52:35;5.88;;;2.63;;
28629;SDS011;15817;42.130;24.762;2023-05-14T01:55:01;4.82;;;2.40;;
28629;SDS011;15817;42.130;24.762;2023-05-14T01:57:27;6.03;;;2.60;;
28629;SDS011;15817;42.130;24.762;2023-05-14T01:59:53;8.63;;;2.50;;
28629;SDS011;15817;42.130;24.762;2023-05-14T02:02:18;5.43;;;2.50;;
28629;SDS011;15817;42.130;24.762;2023-05-14T02:04:45;4.07;;;2.50;;
28629;SDS011;15817;42.130;24.762;2023-05-14T02:07:12;7.75;;;2.20;;
28629;SDS011;15817;42.130;24.762;2023-05-14T02:09:38;4.72;;;2.17;;
28629;SDS011;15817;42.130;24.762;2023-05-14T02:12:05;6.35;;;2.70;;
28629;SDS011;15817;42.130;24.762;2023-05-14T02:14:33;10.35;;;2.55;;
28629;SDS011;15817;42.130;24.762;2023-05-14T02:17:00;4.47;;;2.60;;
28629;SDS011;15817;42.130;24.762;2023-05-14T02:19:26;8.07;;;2.97;;
28629;SDS011;15817;42.130;24.762;2023-05-14T02:21:52;4.88;;;3.38;;
28629;SDS011;15817;42.130;24.762;2023-05-14T02:24:19;5.60;;;3.08;;
28629;SDS011;15817;42.130;24.762;2023-05-14T02:26:45;9.98;;;3.63;;
28629;SDS011;15817;42.130;24.762;2023-05-14T02:29:14;4.13;;;3.17;;
28629;SDS011;15817;42.130;24.762;2023-05-14T02:31:40;5.65;;;3.10;;
28629;SDS011;15817;42.130;24.762;2023-05-14T02:34:05;5.72;;;3.00;;
28629;SDS011;15817;42.130;24.762;2023-05-14T02:36:32;3.92;;;2.63;;
28629;SDS011;15817;42.130;24.762;2023-05-14T02:38:58;3.53;;;2.47;;
28629;SDS011;15817;42.130;24.762;2023-05-14T02:41:25;8.40;;;2.53;;
28629;SDS011;15817;42.130;24.762;2023-05-14T02:43:52;7.25;;;2.47;;
28629;SDS011;15817;42.130;24.762;2023-05-14T02:46:19;4.82;;;2.25;;
28629;SDS011;15817;42.130;24.762;2023-05-14T02:48:45;6.28;;;2.35;;
28629;SDS011;15817;42.130;24.762;2023-05-14T02:51:11;4.20;;;2.45;;
28629;SDS011;15817;42.130;24.762;2023-05-14T02:53:37;3.97;;;2.55;;
28629;SDS011;15817;42.130;24.762;2023-05-14T02:56:03;3.63;;;2.20;;
28629;SDS011;15817;42.130;24.762;2023-05-14T02:58:29;4.40;;;2.60;;
28629;SDS011;15817;42.130;24.762;2023-05-14T03:00:57;6.63;;;2.65;;
28629;SDS011;15817;42.130;24.762;2023-05-14T03:03:23;10.10;;;2.65;;
28629;SDS011;15817;42.130;24.762;2023-05-14T03:05:49;5.13;;;2.30;;
28629;SDS011;15817;42.130;24.762;2023-05-14T03:08:15;5.40;;;1.90;;
28629;SDS011;15817;42.130;24.762;2023-05-14T03:10:40;4.43;;;2.22;;
28629;SDS011;15817;42.130;24.762;2023-05-14T03:13:06;11.10;;;2.40;;
28629;SDS011;15817;42.130;24.762;2023-05-14T03:15:32;4.30;;;2.40;;
28629;SDS011;15817;42.130;24.762;2023-05-14T03:18:00;3.65;;;2.38;;
28629;SDS011;15817;42.130;24.762;2023-05-14T03:20:28;4.28;;;2.25;;
28629;SDS011;15817;42.130;24.762;2023-05-14T03:22:53;4.45;;;2.60;;
28629;SDS011;15817;42.130;24.762;2023-05-14T03:25:20;7.20;;;2.55;;
28629;SDS011;15817;42.130;24.762;2023-05-14T03:27:46;7.65;;;3.13;;
28629;SDS011;15817;42.130;24.762;2023-05-14T03:30:12;4.75;;;2.35;;
28629;SDS011;15817;42.130;24.762;2023-05-14T03:32:38;6.18;;;2.50;;
28629;SDS011;15817;42.130;24.762;2023-05-14T03:35:04;7.30;;;2.45;;
28629;SDS011;15817;42.130;24.762;2023-05-14T03:37:31;4.05;;;2.83;;
28629;SDS011;15817;42.130;24.762;2023-05-14T03:39:57;5.43;;;3.00;;
28629;SDS011;15817;42.130;24.762;2023-05-14T03:42:22;6.00;;;2.40;;
28629;SDS011;15817;42.130;24.762;2023-05-14T03:44:48;5.03;;;2.45;;
28629;SDS011;15817;42.130;24.762;2023-05-14T03:47:14;6.65;;;2.63;;
28629;SDS011;15817;42.130;24.762;2023-05-14T03:49:41;6.47;;;2.55;;
28629;SDS011;15817;42.130;24.762;2023-05-14T03:52:09;5.82;;;2.55;;
28629;SDS011;15817;42.130;24.762;2023-05-14T03:54:35;4.40;;;2.30;;
28629;SDS011;15817;42.130;24.762;2023-05-14T03:57:01;6.65;;;2.95;;
28629;SDS011;15817;42.130;24.762;2023-05-14T03:59:26;8.00;;;2.75;;
28629;SDS011;15817;42.130;24.762;2023-05-14T04:01:52;6.57;;;3.08;;
28629;SDS011;15817;42.130;24.762;2023-05-14T04:04:18;6.55;;;2.70;;
28629;SDS011;15817;42.130;24.762;2023-05-14T04:06:44;3.60;;;2.65;;
28629;SDS011;15817;42.130;24.762;2023-05-14T04:09:10;6.35;;;2.35;;
28629;SDS011;15817;42.130;24.762;2023-05-14T04:11:36;6.55;;;2.92;;
28629;SDS011;15817;42.130;24.762;2023-05-14T04:14:02;4.60;;;3.47;;
28629;SDS011;15817;42.130;24.762;2023-05-14T04:16:28;5.97;;;3.85;;
28629;SDS011;15817;42.130;24.762;2023-05-14T04:18:54;4.28;;;2.67;;
28629;SDS011;15817;42.130;24.762;2023-05-14T04:21:20;4.82;;;2.75;;
28629;SDS011;15817;42.130;24.762;2023-05-14T04:23:45;5.57;;;3.13;;
28629;SDS011;15817;42.130;24.762;2023-05-14T04:26:11;7.50;;;2.83;;
28629;SDS011;15817;42.130;24.762;2023-05-14T04:28:37;3.47;;;2.45;;
28629;SDS011;15817;42.130;24.762;2023-05-14T04:31:03;6.82;;;2.90;;
28629;SDS011;15817;42.130;24.762;2023-05-14T04:33:28;5.90;;;3.20;;
28629;SDS011;15817;42.130;24.762;2023-05-14T04:35:54;5.25;;;3.10;;
28629;SDS011;15817;42.130;24.762;2023-05-14T04:38:20;5.72;;;3.15;;
28629;SDS011;15817;42.130;24.762;2023-05-14T04:40:47;3.72;;;3.10;;
28629;SDS011;15817;42.130;24.762;2023-05-14T04:43:14;9.13;;;3.47;;
28629;SDS011;15817;42.130;24.762;2023-05-14T04:45:40;3.75;;;3.03;;
28629;SDS011;15817;42.130;24.762;2023-05-14T04:48:07;6.20;;;3.05;;
28629;SDS011;15817;42.130;24.762;2023-05-14T04:50:33;4.63;;;2.97;;
28629;SDS011;15817;42.130;24.762;2023-05-14T04:52:59;6.38;;;3.33;;
28629;SDS011;15817;42.130;24.762;2023-05-14T04:55:25;5.32;;;2.75;;
28629;SDS011;15817;42.130;24.762;2023-05-14T04:57:51;7.30;;;3.33;;
28629;SDS011;15817;42.130;24.762;2023-05-14T05:00:17;4.57;;;3.20;;
28629;SDS011;15817;42.130;24.762;2023-05-14T05:02:46;6.97;;;3.15;;
28629;SDS011;15817;42.130;24.762;2023-05-14T05:05:12;7.47;;;3.67;;
28629;SDS011;15817;42.130;24.762;2023-05-14T05:07:42;5.82;;;3.67;;
28629;SDS011;15817;42.130;24.762;2023-05-14T05:10:08;7.40;;;3.88;;
28629;SDS011;15817;42.130;24.762;2023-05-14T05:12:36;8.05;;;3.97;;
28629;SDS011;15817;42.130;24.762;2023-05-14T05:15:03;6.53;;;4.30;;
28629;SDS011;15817;42.130;24.762;2023-05-14T05:17:33;5.30;;;3.83;;
28629;SDS011;15817;42.130;24.762;2023-05-14T05:20:00;5.63;;;3.88;;
28629;SDS011;15817;42.130;24.762;2023-05-14T05:22:26;7.43;;;3.90;;
28629;SDS011;15817;42.130;24.762;2023-05-14T05:24:51;6.45;;;4.07;;
28629;SDS011;15817;42.130;24.762;2023-05-14T05:27:17;6.60;;;4.28;;
28629;SDS011;15817;42.130;24.762;2023-05-14T05:29:45;5.57;;;3.60;;
28629;SDS011;15817;42.130;24.762;2023-05-14T05:32:13;8.48;;;3.50;;
28629;SDS011;15817;42.130;24.762;2023-05-14T05:34:39;7.45;;;3.63;;
28629;SDS011;15817;42.130;24.762;2023-05-14T05:37:05;5.65;;;3.30;;
28629;SDS011;15817;42.130;24.762;2023-05-14T05:39:33;4.15;;;2.88;;
28629;SDS011;15817;42.130;24.762;2023-05-14T05:41:59;5.18;;;3.30;;
28629;SDS011;15817;42.130;24.762;2023-05-14T05:44:26;4.93;;;3.28;;
28629;SDS011;15817;42.130;24.762;2023-05-14T05:46:52;5.80;;;3.28;;
28629;SDS011;15817;42.130;24.762;2023-05-14T05:49:21;7.00;;;3.53;;
28629;SDS011;15817;42.130;24.762;2023-05-14T05:51:48;3.70;;;3.22;;
28629;SDS011;15817;42.130;24.762;2023-05-14T05:54:16;4.82;;;2.80;;
28629;SDS011;15817;42.130;24.762;2023-05-14T05:56:43;3.35;;;2.72;;
28629;SDS011;15817;42.130;24.762;2023-05-14T05:59:12;6.28;;;2.88;;
28629;SDS011;15817;42.130;24.762;2023-05-14T06:01:37;6.88;;;3.63;;
28629;SDS011;15817;42.130;24.762;2023-05-14T06:04:05;6.90;;;3.50;;
28629;SDS011;15817;42.130;24.762;2023-05-14T06:06:30;5.90;;;2.90;;
28629;SDS011;15817;42.130;24.762;2023-05-14T06:08:57;5.25;;;3.00;;
28629;SDS011;15817;42.130;24.762;2023-05-14T06:11:23;11.05;;;3.33;;
28629;SDS011;15817;42.130;24.762;2023-05-14T06:13:52;7.15;;;2.60;;
28629;SDS011;15817;42.130;24.762;2023-05-14T06:16:21;5.22;;;3.40;;
28629;SDS011;15817;42.130;24.762;2023-05-14T06:19:02;7.72;;;3.55;;
28629;SDS011;15817;42.130;24.762;2023-05-14T06:21:28;5.70;;;3.35;;
28629;SDS011;15817;42.130;24.762;2023-05-14T06:23:54;3.78;;;3.00;;
28629;SDS011;15817;42.130;24.762;2023-05-14T06:26:20;9.23;;;3.10;;
28629;SDS011;15817;42.130;24.762;2023-05-14T06:28:46;4.78;;;2.88;;
28629;SDS011;15817;42.130;24.762;2023-05-14T06:31:13;5.57;;;2.95;;
28629;SDS011;15817;42.130;24.762;2023-05-14T06:33:39;6.65;;;3.22;;
28629;SDS011;15817;42.130;24.762;2023-05-14T06:36:11;5.82;;;2.92;;
28629;SDS011;15817;42.130;24.762;2023-05-14T06:38:48;3.53;;;2.67;;
28629;SDS011;15817;42.130;24.762;2023-05-14T06:41:15;10.85;;;3.08;;
28629;SDS011;15817;42.130;24.762;2023-05-14T06:43:50;9.07;;;4.10;;
28629;SDS011;15817;42.130;24.762;2023-05-14T06:46:19;6.82;;;4.03;;
28629;SDS011;15817;42.130;24.762;2023-05-14T06:48:48;9.52;;;4.20;;
28629;SDS011;15817;42.130;24.762;2023-05-14T06:51:16;11.38;;;4.72;;
28629;SDS011;15817;42.130;24.762;2023-05-14T06:53:44;10.65;;;5.10;;
28629;SDS011;15817;42.130;24.762;2023-05-14T06:56:11;11.18;;;5.40;;
28629;SDS011;15817;42.130;24.762;2023-05-14T06:58:40;7.15;;;4.88;;
28629;SDS011;15817;42.130;24.762;2023-05-14T07:01:08;8.70;;;5.35;;
28629;SDS011;15817;42.130;24.762;2023-05-14T07:03:36;8.70;;;4.40;;
28629;SDS011;15817;42.130;24.762;2023-05-14T07:06:05;8.40;;;4.70;;
28629;SDS011;15817;42.130;24.762;2023-05-14T07:08:35;11.60;;;4.70;;
28629;SDS011;15817;42.130;24.762;2023-05-14T07:11:01;11.73;;;5.28;;
28629;SDS011;15817;42.130;24.762;2023-05-14T07:13:29;11.98;;;4.63;;
28629;SDS011;15817;42.130;24.762;2023-05-14T07:15:55;9.45;;;4.20;;
28629;SDS011;15817;42.130;24.762;2023-05-14T07:18:21;11.02;;;5.40;;
28629;SDS011;15817;42.130;24.762;2023-05-14T07:20:48;9.63;;;5.00;;
28629;SDS011;15817;42.130;24.762;2023-05-14T07:23:14;10.63;;;4.72;;
28629;SDS011;15817;42.130;24.762;2023-05-14T07:25:40;7.25;;;4.80;;
28629;SDS011;15817;42.130;24.762;2023-05-14T07:28:05;8.13;;;5.13;;
28629;SDS011;15817;42.130;24.762;2023-05-14T07:30:34;9.55;;;5.03;;
28629;SDS011;15817;42.130;24.762;2023-05-14T07:33:00;7.28;;;5.55;;
28629;SDS011;15817;42.130;24.762;2023-05-14T07:35:25;7.38;;;5.00;;
28629;SDS011;15817;42.130;24.762;2023-05-14T07:37:51;8.48;;;5.50;;
28629;SDS011;15817;42.130;24.762;2023-05-14T07:40:17;11.15;;;5.30;;
28629;SDS011;15817;42.130;24.762;2023-05-14T07:42:43;11.35;;;5.22;;
28629;SDS011;15817;42.130;24.762;2023-05-14T07:45:11;10.68;;;4.88;;
28629;SDS011;15817;42.130;24.762;2023-05-14T07:47:44;7.95;;;4.75;;
28629;SDS011;15817;42.130;24.762;2023-05-14T07:50:10;7.85;;;4.90;;
28629;SDS011;15817;42.130;24.762;2023-05-14T07:52:37;13.25;;;5.22;;
28629;SDS011;15817;42.130;24.762;2023-05-14T07:55:03;10.85;;;5.00;;
28629;SDS011;15817;42.130;24.762;2023-05-14T07:57:30;11.48;;;6.20;;
28629;SDS011;15817;42.130;24.762;2023-05-14T07:59:56;8.48;;;5.25;;
28629;SDS011;15817;42.130;24.762;2023-05-14T08:02:29;10.43;;;5.43;;
28629;SDS011;15817;42.130;24.762;2023-05-14T08:04:57;10.05;;;5.35;;
28629;SDS011;15817;42.130;24.762;2023-05-14T08:07:23;6.55;;;5.43;;
28629;SDS011;15817;42.130;24.762;2023-05-14T08:09:49;10.38;;;5.65;;
28629;SDS011;15817;42.130;24.762;2023-05-14T08:12:15;6.88;;;5.40;;
28629;SDS011;15817;42.130;24.762;2023-05-14T08:14:41;9.98;;;6.57;;
28629;SDS011;15817;42.130;24.762;2023-05-14T08:17:07;19.80;;;7.57;;
28629;SDS011;15817;42.130;24.762;2023-05-14T08:19:33;12.85;;;8.48;;
28629;SDS011;15817;42.130;24.762;2023-05-14T08:21:59;9.07;;;7.07;;
28629;SDS011;15817;42.130;24.762;2023-05-14T08:24:25;8.15;;;6.07;;
28629;SDS011;15817;42.130;24.762;2023-05-14T08:26:54;9.65;;;5.85;;
28629;SDS011;15817;42.130;24.762;2023-05-14T08:29:22;8.98;;;6.40;;
28629;SDS011;15817;42.130;24.762;2023-05-14T08:31:54;7.85;;;6.97;;
28629;SDS011;15817;42.130;24.762;2023-05-14T08:34:20;13.13;;;8.73;;
28629;SDS011;15817;42.130;24.762;2023-05-14T08:36:55;14.60;;;8.85;;
28629;SDS011;15817;42.130;24.762;2023-05-14T08:39:51;10.48;;;7.10;;
28629;SDS011;15817;42.130;24.762;2023-05-14T08:42:27;9.65;;;6.85;;
28629;SDS011;15817;42.130;24.762;2023-05-14T08:45:18;8.93;;;5.97;;
28629;SDS011;15817;42.130;24.762;2023-05-14T08:48:02;9.98;;;6.15;;
28629;SDS011;15817;42.130;24.762;2023-05-14T08:50:52;9.45;;;5.45;;
28629;SDS011;15817;42.130;24.762;2023-05-14T08:57:32;11.30;;;7.03;;
28629;SDS011;15817;42.130;24.762;2023-05-14T09:01:16;9.18;;;7.13;;
28629;SDS011;15817;42.130;24.762;2023-05-14T09:03:53;10.80;;;6.97;;
28629;SDS011;15817;42.130;24.762;2023-05-14T09:06:53;9.30;;;7.38;;
28629;SDS011;15817;42.130;24.762;2023-05-14T09:09:32;9.25;;;6.80;;
28629;SDS011;15817;42.130;24.762;2023-05-14T09:12:12;7.82;;;6.30;;
28629;SDS011;15817;42.130;24.762;2023-05-14T09:15:11;9.90;;;6.40;;
28629;SDS011;15817;42.130;24.762;2023-05-14T09:17:42;9.13;;;6.43;;
28629;SDS011;15817;42.130;24.762;2023-05-14T09:20:15;11.90;;;7.53;;
28629;SDS011;15817;42.130;24.762;2023-05-14T09:22:51;8.77;;;7.13;;
28629;SDS011;15817;42.130;24.762;2023-05-14T09:25:18;12.55;;;7.88;;
28629;SDS011;15817;42.130;24.762;2023-05-14T09:28:06;9.40;;;7.47;;
28629;SDS011;15817;42.130;24.762;2023-05-14T09:30:36;8.30;;;6.40;;
28629;SDS011;15817;42.130;24.762;2023-05-14T09:33:02;10.50;;;7.35;;
28629;SDS011;15817;42.130;24.762;2023-05-14T09:35:48;8.63;;;6.65;;
28629;SDS011;15817;42.130;24.762;2023-05-14T09:38:26;9.52;;;7.07;;
28629;SDS011;15817;42.130;24.762;2023-05-14T09:41:14;7.80;;;6.30;;
28629;SDS011;15817;42.130;24.762;2023-05-14T09:43:41;13.57;;;7.45;;
28629;SDS011;15817;42.130;24.762;2023-05-14T09:46:12;15.43;;;8.23;;
28629;SDS011;15817;42.130;24.762;2023-05-14T09:49:01;8.00;;;6.22;;
28629;SDS011;15817;42.130;24.762;2023-05-14T09:51:28;10.68;;;6.03;;
28629;SDS011;15817;42.130;24.762;2023-05-14T09:53:58;6.57;;;5.60;;
28629;SDS011;15817;42.130;24.762;2023-05-14T09:56:35;9.07;;;5.88;;
28629;SDS011;15817;42.130;24.762;2023-05-14T09:59:04;7.53;;;6.13;;
28629;SDS011;15817;42.130;24.762;2023-05-14T10:01:53;7.88;;;6.32;;
28629;SDS011;15817;42.130;24.762;2023-05-14T10:04:35;7.97;;;6.53;;
28629;SDS011;15817;42.130;24.762;2023-05-14T10:07:20;10.25;;;7.03;;
28629;SDS011;15817;42.130;24.762;2023-05-14T10:09:52;9.60;;;7.80;;
28629;SDS011;15817;42.130;24.762;2023-05-14T10:12:32;8.82;;;7.43;;
28629;SDS011;15817;42.130;24.762;2023-05-14T10:15:10;8.40;;;7.50;;
28629;SDS011;15817;42.130;24.762;2023-05-14T10:17:45;9.48;;;8.35;;
28629;SDS011;15817;42.130;24.762;2023-05-14T10:20:17;9.38;;;7.95;;
28629;SDS011;15817;42.130;24.762;2023-05-14T10:23:12;9.25;;;8.25;;
28629;SDS011;15817;42.130;24.762;2023-05-14T10:26:13;9.73;;;8.30;;
28629;SDS011;15817;42.130;24.762;2023-05-14T10:28:41;10.68;;;8.00;;
28629;SDS011;15817;42.130;24.762;2023-05-14T10:31:15;10.77;;;7.80;;
28629;SDS011;15817;42.130;24.762;2023-05-14T10:33:49;10.98;;;9.75;;
28629;SDS011;15817;42.130;24.762;2023-05-14T10:36:25;12.00;;;9.38;;
28629;SDS011;15817;42.130;24.762;2023-05-14T10:38:57;12.82;;;8.27;;
28629;SDS011;15817;42.130;24.762;2023-05-14T10:41:50;12.25;;;8.20;;
28629;SDS011;15817;42.130;24.762;2023-05-14T10:45:37;10.15;;;8.55;;
28629;SDS011;15817;42.130;24.762;2023-05-14T10:48:09;13.20;;;8.88;;
28629;SDS011;15817;42.130;24.762;2023-05-14T10:50:35;11.10;;;8.80;;
28629;SDS011;15817;42.130;24.762;2023-05-14T10:53:14;10.52;;;8.25;;
28629;SDS011;15817;42.130;24.762;2023-05-14T10:55:41;10.45;;;8.90;;
28629;SDS011;15817;42.130;24.762;2023-05-14T10:58:08;10.23;;;8.93;;
28629;SDS011;15817;42.130;24.762;2023-05-14T11:00:35;9.52;;;8.63;;
28629;SDS011;15817;42.130;24.762;2023-05-14T11:03:08;12.70;;;8.18;;
28629;SDS011;15817;42.130;24.762;2023-05-14T11:05:48;10.75;;;8.20;;
28629;SDS011;15817;42.130;24.762;2023-05-14T11:08:15;9.57;;;8.43;;
28629;SDS011;15817;42.130;24.762;2023-05-14T11:10:53;9.95;;;8.52;;
28629;SDS011;15817;42.130;24.762;2023-05-14T11:13:22;9.88;;;8.60;;
28629;SDS011;15817;42.130;24.762;2023-05-14T11:15:53;12.60;;;9.05;;
28629;SDS011;15817;42.130;24.762;2023-05-14T11:18:27;11.48;;;9.82;;
28629;SDS011;15817;42.130;24.762;2023-05-14T11:24:00;9.68;;;8.77;;
28629;SDS011;15817;42.130;24.762;2023-05-14T11:26:31;10.35;;;8.52;;
28629;SDS011;15817;42.130;24.762;2023-05-14T11:28:58;11.32;;;9.20;;
28629;SDS011;15817;42.130;24.762;2023-05-14T11:31:29;11.38;;;9.18;;
28629;SDS011;15817;42.130;24.762;2023-05-14T11:33:57;11.18;;;9.55;;
28629;SDS011;15817;42.130;24.762;2023-05-14T11:36:28;9.75;;;8.75;;
28629;SDS011;15817;42.130;24.762;2023-05-14T11:38:56;9.55;;;8.65;;
28629;SDS011;15817;42.130;24.762;2023-05-14T11:41:25;9.70;;;8.18;;
28629;SDS011;15817;42.130;24.762;2023-05-14T11:43:55;14.90;;;9.15;;
28629;SDS011;15817;42.130;24.762;2023-05-14T11:46:24;10.80;;;8.82;;
28629;SDS011;15817;42.130;24.762;2023-05-14T11:48:55;11.18;;;8.82;;
28629;SDS011;15817;42.130;24.762;2023-05-14T11:51:20;11.98;;;10.30;;
28629;SDS011;15817;42.130;24.762;2023-05-14T11:53:47;12.98;;;9.68;;
28629;SDS011;15817;42.130;24.762;2023-05-14T11:56:16;18.85;;;14.38;;
28629;SDS011;15817;42.130;24.762;2023-05-14T11:58:48;11.85;;;9.85;;
28629;SDS011;15817;42.130;24.762;2023-05-14T12:01:16;12.77;;;8.52;;
28629;SDS011;15817;42.130;24.762;2023-05-14T12:03:51;11.82;;;8.60;;
28629;SDS011;15817;42.130;24.762;2023-05-14T12:06:20;11.45;;;8.57;;
28629;SDS011;15817;42.130;24.762;2023-05-14T12:08:46;12.05;;;8.02;;
28629;SDS011;15817;42.130;24.762;2023-05-14T12:11:13;10.10;;;8.18;;
28629;SDS011;15817;42.130;24.762;2023-05-14T12:13:39;12.80;;;8.98;;
28629;SDS011;15817;42.130;24.762;2023-05-14T12:16:07;13.32;;;8.48;;
28629;SDS011;15817;42.130;24.762;2023-05-14T12:18:38;9.30;;;8.32;;
28629;SDS011;15817;42.130;24.762;2023-05-14T12:21:05;9.88;;;8.52;;
28629;SDS011;15817;42.130;24.762;2023-05-14T12:23:34;10.32;;;8.75;;
28629;SDS011;15817;42.130;24.762;2023-05-14T12:26:06;9.05;;;8.15;;
28629;SDS011;15817;42.130;24.762;2023-05-14T12:28:33;12.20;;;9.38;;
28629;SDS011;15817;42.130;24.762;2023-05-14T12:31:12;9.80;;;8.90;;
28629;SDS011;15817;42.130;24.762;2023-05-14T12:33:50;9.40;;;8.50;;
28629;SDS011;15817;42.130;24.762;2023-05-14T12:36:22;12.48;;;9.95;;
28629;SDS011;15817;42.130;24.762;2023-05-14T12:38:58;11.52;;;9.18;;
28629;SDS011;15817;42.130;24.762;2023-05-14T12:45:19;10.05;;;8.85;;
28629;SDS011;15817;42.130;24.762;2023-05-14T12:47:47;11.75;;;8.38;;
28629;SDS011;15817;42.130;24.762;2023-05-14T12:50:22;10.73;;;9.32;;
28629;SDS011;15817;42.130;24.762;2023-05-14T12:52:51;10.63;;;9.38;;
28629;SDS011;15817;42.130;24.762;2023-05-14T12:55:20;11.50;;;9.63;;
28629;SDS011;15817;42.130;24.762;2023-05-14T12:57:52;13.88;;;11.38;;
28629;SDS011;15817;42.130;24.762;2023-05-14T13:00:44;14.40;;;11.27;;
28629;SDS011;15817;42.130;24.762;2023-05-14T13:03:10;17.23;;;11.52;;
28629;SDS011;15817;42.130;24.762;2023-05-14T13:05:36;16.45;;;12.05;;
28629;SDS011;15817;42.130;24.762;2023-05-14T13:08:02;14.13;;;11.32;;
28629;SDS011;15817;42.130;24.762;2023-05-14T13:10:30;12.50;;;10.13;;
28629;SDS011;15817;42.130;24.762;2023-05-14T13:12:56;12.10;;;10.48;;
28629;SDS011;15817;42.130;24.762;2023-05-14T13:15:36;14.63;;;11.43;;
28629;SDS011;15817;42.130;24.762;2023-05-14T13:18:02;15.18;;;12.52;;
28629;SDS011;15817;42.130;24.762;2023-05-14T13:20:32;12.82;;;11.52;;
28629;SDS011;15817;42.130;24.762;2023-05-14T13:23:01;12.82;;;11.07;;
28629;SDS011;15817;42.130;24.762;2023-05-14T13:25:32;12.15;;;10.40;;
28629;SDS011;15817;42.130;24.762;2023-05-14T13:28:05;12.45;;;10.68;;
28629;SDS011;15817;42.130;24.762;2023-05-14T13:31:01;16.90;;;11.25;;
28629;SDS011;15817;42.130;24.762;2023-05-14T13:33:37;12.32;;;11.05;;
28629;SDS011;15817;42.130;24.762;2023-05-14T13:36:13;13.40;;;11.20;;
28629;SDS011;15817;42.130;24.762;2023-05-14T13:39:17;11.65;;;10.52;;
28629;SDS011;15817;42.130;24.762;2023-05-14T13:41:51;12.55;;;11.30;;
28629;SDS011;15817;42.130;24.762;2023-05-14T13:44:23;13.05;;;11.52;;
28629;SDS011;15817;42.130;24.762;2023-05-14T13:47:01;13.00;;;11.70;;
28629;SDS011;15817;42.130;24.762;2023-05-14T13:49:44;15.73;;;10.90;;
28629;SDS011;15817;42.130;24.762;2023-05-14T13:52:17;14.40;;;11.40;;
28629;SDS011;15817;42.130;24.762;2023-05-14T13:54:55;14.82;;;11.35;;
28629;SDS011;15817;42.130;24.762;2023-05-14T13:57:33;13.82;;;10.70;;
28629;SDS011;15817;42.130;24.762;2023-05-14T13:59:58;11.68;;;10.32;;
28629;SDS011;15817;42.130;24.762;2023-05-14T14:02:45;11.13;;;9.95;;
28629;SDS011;15817;42.130;24.762;2023-05-14T14:05:39;11.15;;;9.93;;
28629;SDS011;15817;42.130;24.762;2023-05-14T14:08:14;15.35;;;10.35;;
28629;SDS011;15817;42.130;24.762;2023-05-14T14:10:51;13.65;;;10.52;;
28629;SDS011;15817;42.130;24.762;2023-05-14T14:13:23;13.13;;;11.68;;
28629;SDS011;15817;42.130;24.762;2023-05-14T14:15:48;12.38;;;11.10;;
28629;SDS011;15817;42.130;24.762;2023-05-14T14:18:39;12.60;;;11.30;;
28629;SDS011;15817;42.130;24.762;2023-05-14T14:21:07;16.50;;;11.35;;
28629;SDS011;15817;42.130;24.762;2023-05-14T14:23:54;13.70;;;12.27;;
28629;SDS011;15817;42.130;24.762;2023-05-14T14:26:28;19.73;;;12.73;;
28629;SDS011;15817;42.130;24.762;2023-05-14T14:29:21;14.15;;;12.10;;
28629;SDS011;15817;42.130;24.762;2023-05-14T14:32:05;14.75;;;12.43;;
28629;SDS011;15817;42.130;24.762;2023-05-14T14:34:34;13.82;;;12.35;;
28629;SDS011;15817;42.130;24.762;2023-05-14T14:41:11;14.70;;;12.30;;
28629;SDS011;15817;42.130;24.762;2023-05-14T14:43:39;13.98;;;12.40;;
28629;SDS011;15817;42.130;24.762;2023-05-14T14:46:11;17.30;;;13.10;;
28629;SDS011;15817;42.130;24.762;2023-05-14T14:48:38;16.70;;;13.68;;
28629;SDS011;15817;42.130;24.762;2023-05-14T14:51:09;16.98;;;12.60;;
28629;SDS011;15817;42.130;24.762;2023-05-14T14:56:50;13.70;;;12.30;;
28629;SDS011;15817;42.130;24.762;2023-05-14T14:59:17;15.35;;;13.02;;
28629;SDS011;15817;42.130;24.762;2023-05-14T15:05:05;20.30;;;15.63;;
28629;SDS011;15817;42.130;24.762;2023-05-14T15:07:53;19.83;;;16.35;;
28629;SDS011;15817;42.130;24.762;2023-05-14T15:10:30;17.02;;;15.27;;
28629;SDS011;15817;42.130;24.762;2023-05-14T15:13:25;19.80;;;14.60;;
28629;SDS011;15817;42.130;24.762;2023-05-14T15:16:28;17.13;;;15.23;;
28629;SDS011;15817;42.130;24.762;2023-05-14T15:19:05;17.67;;;14.82;;
28629;SDS011;15817;42.130;24.762;2023-05-14T15:21:40;19.98;;;16.17;;
28629;SDS011;15817;42.130;24.762;2023-05-14T15:24:15;19.67;;;15.43;;